createdAt,value
2019-02-24T00:01:08.139Z,66.00
2019-02-24T00:03:36.565Z,66.10
2019-02-24T00:06:05.244Z,66.20
2019-02-24T00:08:33.950Z,66.30
2019-02-24T00:11:02.387Z,66.30
2019-02-24T00:13:30.821Z,66.50
2019-02-24T00:15:59.256Z,66.50
2019-02-24T00:18:27.734Z,66.80
2019-02-24T00:20:56.210Z,66.80
2019-02-24T00:23:24.650Z,66.90
2019-02-24T00:25:53.081Z,67.00
2019-02-24T00:28:21.482Z,67.20
2019-02-24T00:30:49.916Z,67.10
2019-02-24T00:33:18.312Z,67.20
2019-02-24T00:35:46.743Z,67.40
2019-02-24T00:38:15.519Z,67.30
2019-02-24T00:40:43.912Z,67.40
2019-02-24T00:43:12.664Z,67.40
2019-02-24T00:45:41.052Z,67.40
2019-02-24T00:48:09.484Z,67.50
2019-02-24T00:50:37.900Z,67.60
2019-02-24T00:53:06.566Z,67.60
2019-02-24T00:55:34.971Z,67.80
2019-02-24T00:58:03.471Z,67.80
2019-02-24T01:00:32.069Z,67.70
2019-02-24T01:03:00.560Z,67.80
2019-02-24T01:05:28.998Z,67.80
2019-02-24T01:07:57.451Z,68.00
2019-02-24T01:10:26.816Z,68.10
2019-02-24T01:12:55.248Z,68.20
2019-02-24T01:15:23.656Z,68.30
2019-02-24T01:17:52.120Z,68.40
2019-02-24T01:20:20.487Z,68.50
2019-02-24T01:22:48.957Z,68.50
2019-02-24T01:25:17.631Z,68.70
2019-02-24T01:27:46.342Z,68.80
2019-02-24T01:30:14.818Z,68.90
2019-02-24T01:32:43.229Z,69.10
2019-02-24T01:35:11.643Z,69.00
2019-02-24T01:37:40.074Z,69.10
2019-02-24T01:40:08.873Z,69.10
2019-02-24T01:42:37.298Z,69.20
2019-02-24T01:45:07.156Z,69.30
2019-02-24T01:47:35.549Z,69.40
2019-02-24T01:50:05.878Z,69.50
2019-02-24T01:52:34.585Z,69.60
2019-02-24T01:55:03.039Z,69.80
2019-02-24T01:57:31.453Z,69.80
2019-02-24T01:59:59.853Z,69.90
2019-02-24T02:02:28.324Z,70.90
2019-02-24T02:04:58.521Z,70.10
2019-02-24T02:07:26.725Z,70.20
2019-02-24T02:09:55.127Z,70.40
2019-02-24T02:12:23.514Z,70.40
2019-02-24T02:14:51.896Z,70.50
2019-02-24T02:17:20.318Z,70.60
2019-02-24T02:19:48.890Z,70.70
2019-02-24T02:22:17.533Z,70.90
2019-02-24T02:24:45.920Z,70.90
2019-02-24T02:27:14.393Z,71.00
2019-02-24T02:29:42.778Z,71.00
2019-02-24T02:32:11.236Z,71.10
2019-02-24T02:34:39.633Z,71.20
2019-02-24T02:37:08.083Z,71.30
2019-02-24T02:39:36.504Z,71.40
2019-02-24T02:42:04.901Z,71.50
2019-02-24T02:44:33.314Z,71.40
2019-02-24T02:47:01.732Z,71.60
2019-02-24T02:49:30.179Z,71.50
2019-02-24T02:51:58.562Z,71.70
2019-02-24T02:54:27.012Z,71.60
2019-02-24T02:56:55.430Z,71.90
2019-02-24T02:59:23.833Z,72.00
2019-02-24T03:01:52.500Z,72.00
2019-02-24T03:04:20.944Z,72.10
2019-02-24T03:06:59.845Z,72.10
2019-02-24T03:09:28.555Z,72.10
2019-02-24T03:11:56.957Z,72.10
2019-02-24T03:14:25.377Z,72.20
2019-02-24T03:16:53.778Z,72.20
2019-02-24T03:19:22.220Z,72.30
2019-02-24T03:21:50.702Z,72.40
2019-02-24T03:24:19.115Z,72.40
2019-02-24T03:26:47.534Z,72.40
2019-02-24T03:29:15.954Z,72.60
2019-02-24T03:31:44.443Z,72.60
2019-02-24T03:34:12.911Z,72.70
2019-02-24T03:36:41.313Z,72.70
2019-02-24T03:39:09.762Z,72.70
2019-02-24T03:41:38.500Z,72.90
2019-02-24T03:44:06.919Z,72.90
2019-02-24T03:46:35.347Z,72.90
2019-02-24T03:49:03.747Z,72.90
2019-02-24T03:51:32.234Z,73.00
2019-02-24T03:54:00.736Z,73.10
2019-02-24T03:56:29.121Z,73.00
2019-02-24T03:58:57.794Z,73.10
2019-02-24T04:01:26.217Z,73.10
2019-02-24T04:03:54.648Z,73.20
2019-02-24T04:06:23.119Z,73.30
2019-02-24T04:08:51.556Z,73.30
2019-02-24T04:11:19.980Z,73.30
2019-02-24T04:13:48.372Z,73.50
2019-02-24T04:16:16.826Z,73.40
2019-02-24T04:18:45.240Z,73.60
2019-02-24T04:21:13.736Z,73.60
2019-02-24T04:23:42.386Z,73.60
2019-02-24T04:26:10.787Z,73.70
2019-02-24T04:28:39.227Z,73.80
2019-02-24T04:31:07.606Z,73.80
2019-02-24T04:33:36.003Z,73.80
2019-02-24T04:36:04.419Z,74.00
2019-02-24T04:38:32.833Z,73.90
2019-02-24T04:41:01.229Z,73.90
2019-02-24T04:43:29.644Z,74.00
2019-02-24T04:45:58.384Z,74.00
2019-02-24T04:48:26.812Z,74.00
2019-02-24T04:50:55.487Z,74.10
2019-02-24T04:53:23.959Z,74.00
2019-02-24T04:55:52.375Z,74.20
2019-02-24T04:58:20.799Z,74.20
2019-02-24T05:00:49.210Z,74.20
2019-02-24T05:03:17.622Z,74.30
2019-02-24T05:05:46.027Z,74.40
2019-02-24T05:08:14.755Z,74.30
2019-02-24T05:10:43.150Z,74.30
2019-02-24T05:13:11.549Z,74.40
2019-02-24T05:15:39.957Z,74.50
2019-02-24T05:18:08.402Z,74.50
2019-02-24T05:20:36.796Z,74.60
2019-02-24T05:23:05.216Z,74.50
2019-02-24T05:25:33.932Z,74.60
2019-02-24T05:28:02.329Z,74.60
2019-02-24T05:30:30.736Z,74.70
2019-02-24T05:32:59.152Z,75.00
2019-02-24T05:35:27.539Z,75.00
2019-02-24T05:37:55.980Z,75.00
2019-02-24T05:40:24.368Z,74.90
2019-02-24T05:42:52.763Z,74.80
2019-02-24T05:45:21.149Z,74.80
2019-02-24T05:47:49.559Z,74.70
2019-02-24T05:50:17.969Z,74.70
2019-02-24T05:52:46.393Z,74.90
2019-02-24T05:55:15.165Z,74.80
2019-02-24T05:57:43.588Z,74.90
2019-02-24T06:00:11.970Z,74.90
2019-02-24T06:02:40.405Z,75.00
2019-02-24T06:05:08.796Z,75.00
2019-02-24T06:07:37.211Z,75.00
2019-02-24T06:10:05.980Z,75.10
2019-02-24T06:12:34.398Z,75.10
2019-02-24T06:15:02.860Z,75.10
2019-02-24T06:17:31.257Z,75.10
2019-02-24T06:19:59.645Z,75.20
2019-02-24T06:22:28.032Z,75.20
2019-02-24T06:24:56.457Z,75.20
2019-02-24T06:27:24.857Z,75.30
2019-02-24T06:29:53.367Z,75.30
2019-02-24T06:32:21.748Z,75.30
2019-02-24T06:34:50.149Z,75.30
2019-02-24T06:37:18.549Z,75.40
2019-02-24T06:39:46.989Z,75.40
2019-02-24T06:42:15.380Z,75.40
2019-02-24T06:44:43.798Z,75.40
2019-02-24T06:47:12.204Z,75.60
2019-02-24T06:49:40.628Z,75.60
2019-02-24T06:52:09.031Z,75.60
2019-02-24T06:54:37.450Z,75.70
2019-02-24T06:57:06.083Z,75.70
2019-02-24T06:59:34.516Z,75.70
2019-02-24T07:02:02.983Z,75.80
2019-02-24T07:04:31.417Z,75.70
2019-02-24T07:06:59.800Z,75.70
2019-02-24T07:09:28.218Z,75.80
2019-02-24T07:11:56.614Z,75.80
2019-02-24T07:14:25.032Z,75.80
2019-02-24T07:16:53.419Z,75.80
2019-02-24T07:19:21.852Z,75.70
2019-02-24T07:21:50.248Z,75.70
2019-02-24T07:24:18.649Z,75.60
2019-02-24T07:26:47.048Z,75.50
2019-02-24T07:29:15.443Z,75.40
2019-02-24T07:31:44.154Z,75.40
2019-02-24T07:34:12.584Z,75.30
2019-02-24T07:36:40.975Z,75.30
2019-02-24T07:39:09.459Z,75.20
2019-02-24T07:41:37.906Z,75.10
2019-02-24T07:44:06.312Z,75.20
2019-02-24T07:46:34.765Z,75.10
2019-02-24T07:49:03.173Z,75.10
2019-02-24T07:51:31.992Z,75.00
2019-02-24T07:54:00.962Z,75.00
2019-02-24T07:56:29.352Z,75.00
2019-02-24T07:58:57.765Z,74.90
2019-02-24T08:01:26.173Z,74.80
2019-02-24T08:03:54.573Z,74.80
2019-02-24T08:06:23.056Z,74.60
2019-02-24T08:08:51.480Z,74.50
2019-02-24T08:11:19.947Z,74.30
2019-02-24T08:13:48.417Z,74.20
2019-02-24T08:16:16.862Z,74.10
2019-02-24T08:18:49.548Z,73.80
2019-02-24T08:21:15.369Z,73.60
2019-02-24T08:23:43.771Z,73.50
2019-02-24T08:26:12.193Z,73.40
2019-02-24T08:28:40.562Z,73.10
2019-02-24T08:31:09.035Z,73.00
2019-02-24T08:33:37.456Z,72.70
2019-02-24T08:36:05.859Z,72.60
2019-02-24T08:38:34.268Z,72.40
2019-02-24T08:41:02.702Z,72.20
2019-02-24T08:43:31.167Z,72.00
2019-02-24T08:45:59.559Z,71.90
2019-02-24T08:48:28.040Z,71.70
2019-02-24T08:50:56.809Z,71.50
2019-02-24T08:53:25.262Z,71.40
2019-02-24T08:55:53.679Z,71.10
2019-02-24T08:58:22.065Z,70.90
2019-02-24T09:00:51.318Z,70.60
2019-02-24T09:03:19.892Z,70.30
2019-02-24T09:05:48.320Z,70.10
2019-02-24T09:08:17.009Z,69.80
2019-02-24T09:10:45.445Z,69.50
2019-02-24T09:13:13.816Z,69.20
2019-02-24T09:15:42.240Z,68.90
2019-02-24T09:18:10.712Z,69.10
2019-02-24T09:20:39.585Z,68.30
2019-02-24T09:23:08.260Z,68.10
2019-02-24T09:25:36.773Z,67.80
2019-02-24T09:28:05.196Z,67.50
2019-02-24T09:30:33.609Z,67.30
2019-02-24T09:33:02.341Z,67.00
2019-02-24T09:35:30.921Z,66.70
2019-02-24T09:37:59.507Z,66.40
2019-02-24T09:40:27.913Z,66.20
2019-02-24T09:42:56.313Z,66.00
2019-02-24T09:45:24.996Z,65.70
2019-02-24T09:47:53.383Z,65.50
2019-02-24T09:50:21.799Z,65.20
2019-02-24T09:52:50.401Z,64.90
2019-02-24T09:55:18.759Z,64.70
2019-02-24T09:57:47.243Z,64.40
2019-02-24T10:00:16.566Z,64.10
2019-02-24T10:02:45.087Z,63.90
2019-02-24T10:05:13.461Z,63.60
2019-02-24T10:07:41.877Z,63.30
2019-02-24T10:10:11.603Z,63.00
2019-02-24T10:12:40.054Z,62.80
2019-02-24T10:15:13.396Z,62.50
2019-02-24T10:17:41.820Z,62.30
2019-02-24T10:20:11.353Z,61.90
2019-02-24T10:22:39.772Z,61.70
2019-02-24T10:25:08.994Z,61.50
2019-02-24T10:27:37.402Z,61.30
2019-02-24T10:30:14.163Z,61.00
2019-02-24T10:32:42.561Z,60.90
2019-02-24T10:35:10.953Z,60.50
2019-02-24T10:37:39.465Z,60.20
2019-02-24T10:40:15.782Z,59.80
2019-02-24T10:42:44.183Z,59.50
2019-02-24T10:45:15.207Z,59.10
2019-02-24T10:47:43.601Z,58.70
2019-02-24T10:50:13.738Z,58.40
2019-02-24T10:52:42.151Z,58.10
2019-02-24T10:55:10.553Z,58.00
2019-02-24T10:57:39.029Z,57.70
2019-02-24T11:00:12.834Z,57.30
2019-02-24T11:02:41.203Z,56.80
2019-02-24T11:05:09.643Z,56.40
2019-02-24T11:07:38.059Z,56.10
2019-02-24T11:10:09.096Z,55.80
2019-02-24T11:12:37.468Z,55.50
2019-02-24T11:15:12.771Z,55.20
2019-02-24T11:17:41.505Z,54.70
2019-02-24T11:20:17.541Z,54.20
2019-02-24T11:22:45.903Z,53.90
2019-02-24T11:25:14.304Z,53.60
2019-02-24T11:27:42.669Z,53.20
2019-02-24T11:30:12.302Z,52.90
2019-02-24T11:32:41.581Z,52.70
2019-02-24T11:35:13.133Z,52.40
2019-02-24T11:37:41.502Z,52.20
2019-02-24T11:40:11.646Z,51.90
2019-02-24T11:42:40.050Z,51.50
2019-02-24T11:45:09.395Z,51.20
2019-02-24T11:47:37.782Z,50.90
2019-02-24T11:50:08.610Z,50.50
2019-02-24T11:52:37.007Z,50.30
2019-02-24T11:55:06.665Z,50.00
2019-02-24T11:57:35.043Z,49.80
2019-02-24T12:00:03.507Z,49.40
2019-02-24T12:02:34.547Z,49.00
2019-02-24T12:05:02.015Z,48.60
2019-02-24T12:07:30.466Z,48.10
2019-02-24T12:09:58.917Z,47.70
2019-02-24T12:12:27.391Z,47.30
2019-02-24T12:14:55.790Z,46.60
2019-02-24T12:17:24.203Z,46.20
2019-02-24T12:19:52.660Z,45.80
2019-02-24T12:22:21.065Z,45.40
2019-02-24T12:24:49.748Z,45.00
2019-02-24T12:27:18.166Z,44.70
2019-02-24T12:29:46.553Z,44.40
2019-02-24T12:32:15.239Z,44.20
2019-02-24T12:34:43.890Z,44.00
2019-02-24T12:37:12.586Z,43.90
2019-02-24T12:39:40.968Z,43.70
2019-02-24T12:42:09.361Z,43.60
2019-02-24T12:44:37.752Z,43.40
2019-02-24T12:47:07.271Z,43.10
2019-02-24T12:49:35.666Z,42.70
2019-02-24T12:52:04.111Z,42.00
2019-02-24T12:54:32.491Z,41.50
2019-02-24T12:57:01.194Z,41.20
2019-02-24T12:59:29.578Z,40.80
2019-02-24T13:02:05.447Z,40.60
2019-02-24T13:04:28.901Z,40.20
2019-02-24T13:06:57.700Z,40.00
2019-02-24T13:09:26.433Z,39.90
2019-02-24T13:11:54.894Z,39.90
2019-02-24T13:14:23.693Z,39.30
2019-02-24T13:16:52.092Z,38.70
2019-02-24T13:19:20.456Z,38.00
2019-02-24T13:21:48.887Z,37.30
2019-02-24T13:24:17.277Z,36.70
2019-02-24T13:26:45.689Z,35.60
2019-02-24T13:29:14.104Z,34.50
2019-02-24T13:31:42.575Z,33.30
2019-02-24T13:34:10.976Z,32.20
2019-02-24T13:36:39.281Z,31.50
2019-02-24T13:39:07.711Z,30.60
2019-02-24T13:41:36.067Z,30.00
2019-02-24T13:44:04.463Z,29.40
2019-02-24T13:46:32.861Z,28.80
2019-02-24T13:49:01.518Z,28.30
2019-02-24T13:51:29.991Z,27.80
2019-02-24T13:53:58.420Z,27.40
2019-02-24T13:56:26.791Z,26.80
2019-02-24T13:58:55.180Z,26.30
2019-02-24T14:01:23.859Z,25.90
2019-02-24T14:03:52.281Z,25.50
2019-02-24T14:06:20.670Z,25.20
2019-02-24T14:08:49.304Z,24.90
2019-02-24T14:11:17.702Z,24.50
2019-02-24T14:13:46.080Z,24.20
2019-02-24T14:16:14.495Z,23.80
2019-02-24T14:18:42.864Z,23.50
2019-02-24T14:21:11.248Z,23.30
2019-02-24T14:23:39.656Z,23.00
2019-02-24T14:26:08.056Z,22.90
2019-02-24T14:28:36.425Z,22.80
2019-02-24T14:31:04.836Z,22.50
2019-02-24T14:33:33.225Z,22.10
2019-02-24T14:36:03.183Z,21.90
2019-02-24T14:38:31.615Z,21.70
2019-02-24T14:40:59.984Z,21.70
2019-02-24T14:43:28.363Z,21.50
2019-02-24T14:45:56.752Z,21.30
2019-02-24T14:48:25.136Z,21.10
2019-02-24T14:50:53.527Z,20.90
2019-02-24T14:53:21.960Z,20.60
2019-02-24T14:55:50.314Z,20.50
2019-02-24T14:58:18.762Z,20.50
2019-02-24T15:00:47.258Z,20.40
2019-02-24T15:03:15.695Z,20.30
2019-02-24T15:05:44.400Z,20.20
2019-02-24T15:08:12.787Z,20.10
2019-02-24T15:10:41.158Z,20.00
2019-02-24T15:13:09.573Z,19.90
2019-02-24T15:15:37.984Z,19.80
2019-02-24T15:18:06.402Z,19.70
2019-02-24T15:20:34.797Z,19.70
2019-02-24T15:23:03.210Z,19.60
2019-02-24T15:25:31.594Z,19.40
2019-02-24T15:27:59.997Z,19.20
2019-02-24T15:30:30.732Z,19.00
2019-02-24T15:32:59.129Z,19.00
2019-02-24T15:35:27.490Z,18.90
2019-02-24T15:37:55.900Z,18.80
2019-02-24T15:40:24.279Z,18.80
2019-02-24T15:42:52.978Z,18.70
2019-02-24T15:45:21.394Z,18.70
2019-02-24T15:47:49.752Z,18.60
2019-02-24T15:50:18.252Z,18.60
2019-02-24T15:52:46.620Z,18.70
2019-02-24T15:55:15.760Z,19.10
2019-02-24T15:57:44.143Z,19.70
2019-02-24T16:00:17.450Z,20.20
2019-02-24T16:02:46.175Z,21.00
2019-02-24T16:05:14.545Z,21.80
2019-02-24T16:07:42.944Z,22.40
2019-02-24T16:10:18.978Z,23.10
2019-02-24T16:12:47.706Z,23.70
2019-02-24T16:15:19.594Z,24.40
2019-02-24T16:17:47.986Z,25.00
2019-02-24T16:20:21.988Z,25.60
2019-02-24T16:22:50.403Z,26.10
2019-02-24T16:25:19.374Z,26.60
2019-02-24T16:27:47.784Z,27.20
2019-02-24T16:30:16.449Z,27.90
2019-02-24T16:32:44.866Z,28.40
2019-02-24T16:35:14.925Z,28.90
2019-02-24T16:37:43.311Z,29.40
2019-02-24T16:40:16.728Z,29.80
2019-02-24T16:42:45.092Z,30.20
2019-02-24T16:45:15.036Z,30.70
2019-02-24T16:47:43.451Z,31.20
2019-02-24T16:50:14.439Z,31.60
2019-02-24T16:52:42.877Z,32.10
2019-02-24T16:55:13.186Z,32.50
2019-02-24T16:57:41.603Z,32.90
2019-02-24T17:00:13.126Z,33.20
2019-02-24T17:02:41.557Z,33.70
2019-02-24T17:05:09.963Z,34.10
2019-02-24T17:07:38.363Z,34.50
2019-02-24T17:10:10.006Z,34.90
2019-02-24T17:12:38.424Z,35.30
2019-02-24T17:15:09.580Z,35.60
2019-02-24T17:17:38.059Z,36.00
2019-02-24T17:20:09.978Z,36.40
2019-02-24T17:22:38.376Z,36.80
2019-02-24T17:25:08.448Z,37.10
2019-02-24T17:27:36.910Z,37.50
2019-02-24T17:30:08.582Z,38.60
2019-02-24T17:32:36.975Z,38.30
2019-02-24T17:35:07.303Z,38.70
2019-02-24T17:37:35.720Z,38.90
2019-02-24T17:40:06.930Z,39.30
2019-02-24T17:42:35.391Z,39.60
2019-02-24T17:45:04.261Z,39.90
2019-02-24T17:47:32.740Z,40.10
2019-02-24T17:50:01.462Z,40.50
2019-02-24T17:52:29.896Z,40.70
2019-02-24T17:54:59.924Z,41.00
2019-02-24T17:57:30.302Z,41.20
2019-02-24T17:59:58.694Z,41.50
2019-02-24T18:02:27.105Z,41.80
2019-02-24T18:04:55.524Z,42.10
2019-02-24T18:07:23.966Z,42.30
2019-02-24T18:09:52.655Z,42.60
2019-02-24T18:12:21.333Z,42.80
2019-02-24T18:14:49.761Z,43.10
2019-02-24T18:17:18.160Z,43.30
2019-02-24T18:19:46.635Z,43.60
2019-02-24T18:22:15.048Z,43.90
2019-02-24T18:24:43.477Z,44.20
2019-02-24T18:27:12.008Z,44.40
2019-02-24T18:29:40.464Z,44.70
2019-02-24T18:32:08.930Z,45.00
2019-02-24T18:34:37.423Z,45.90
2019-02-24T18:37:05.898Z,45.50
2019-02-24T18:39:34.289Z,45.80
2019-02-24T18:42:02.771Z,46.10
2019-02-24T18:44:31.269Z,46.30
2019-02-24T18:46:59.717Z,46.60
2019-02-24T18:49:28.121Z,46.90
2019-02-24T18:51:57.416Z,47.10
2019-02-24T18:54:34.364Z,47.30
2019-02-24T18:56:56.088Z,47.50
2019-02-24T18:59:24.484Z,47.70
2019-02-24T19:01:53.963Z,47.90
2019-02-24T19:04:23.641Z,48.10
2019-02-24T19:06:52.089Z,48.30
2019-02-24T19:09:20.402Z,48.50
2019-02-24T19:11:48.817Z,48.70
2019-02-24T19:14:17.496Z,48.80
2019-02-24T19:16:45.918Z,49.10
2019-02-24T19:19:14.295Z,49.20
2019-02-24T19:21:44.321Z,49.40
2019-02-24T19:24:14.644Z,49.60
2019-02-24T19:26:43.060Z,49.80
2019-02-24T19:29:11.455Z,50.00
2019-02-24T19:31:39.887Z,50.20
2019-02-24T19:34:08.297Z,50.30
2019-02-24T19:36:37.056Z,50.40
2019-02-24T19:39:05.705Z,50.70
2019-02-24T19:41:34.101Z,50.90
2019-02-24T19:44:02.507Z,51.10
2019-02-24T19:46:30.957Z,51.20
2019-02-24T19:48:59.406Z,51.40
2019-02-24T19:51:27.817Z,51.50
2019-02-24T19:53:56.263Z,51.60
2019-02-24T19:56:24.689Z,51.80
2019-02-24T19:58:55.985Z,51.90
2019-02-24T20:01:24.381Z,52.00
2019-02-24T20:03:54.433Z,52.20
2019-02-24T20:06:24.451Z,52.30
2019-02-24T20:08:52.970Z,52.50
2019-02-24T20:11:21.386Z,52.70
2019-02-24T20:13:50.083Z,52.80
2019-02-24T20:16:18.621Z,52.90
2019-02-24T20:18:47.135Z,53.10
2019-02-24T20:21:15.591Z,53.20
2019-02-24T20:23:44.020Z,53.30
2019-02-24T20:26:13.682Z,53.50
2019-02-24T20:28:42.175Z,53.50
2019-02-24T20:31:10.563Z,53.70
2019-02-24T20:33:39.024Z,53.80
2019-02-24T20:36:07.422Z,53.90
2019-02-24T20:38:35.849Z,53.90
2019-02-24T20:41:04.247Z,54.00
2019-02-24T20:43:32.654Z,54.10
2019-02-24T20:46:01.130Z,54.20
2019-02-24T20:48:29.825Z,54.20
2019-02-24T20:50:58.559Z,54.40
2019-02-24T20:53:28.267Z,54.40
2019-02-24T20:55:57.104Z,54.50
2019-02-24T20:58:25.552Z,54.60
2019-02-24T21:00:54.272Z,54.70
2019-02-24T21:03:22.758Z,54.80
2019-02-24T21:05:51.151Z,54.90
2019-02-24T21:08:19.826Z,55.10
2019-02-24T21:10:48.339Z,55.10
2019-02-24T21:13:19.758Z,55.30
2019-02-24T21:15:48.144Z,55.40
2019-02-24T21:18:16.587Z,55.50
2019-02-24T21:20:45.014Z,55.60
2019-02-24T21:23:13.537Z,55.80
2019-02-24T21:25:41.941Z,55.80
2019-02-24T21:28:10.382Z,55.90
2019-02-24T21:30:38.777Z,56.10
2019-02-24T21:33:07.268Z,56.20
2019-02-24T21:35:35.680Z,56.20
2019-02-24T21:38:04.111Z,56.40
2019-02-24T21:40:32.619Z,56.50
2019-02-24T21:43:01.034Z,56.60
2019-02-24T21:45:29.563Z,56.70
2019-02-24T21:47:58.002Z,56.80
2019-02-24T21:50:26.477Z,56.90
2019-02-24T21:52:54.915Z,56.90
2019-02-24T21:55:23.313Z,56.90
2019-02-24T21:57:51.749Z,57.00
2019-02-24T22:00:24.298Z,57.00
2019-02-24T22:02:53.013Z,57.00
2019-02-24T22:05:21.433Z,57.00
2019-02-24T22:07:49.858Z,57.10
2019-02-24T22:10:18.320Z,57.10
2019-02-24T22:12:46.762Z,57.30
2019-02-24T22:15:17.307Z,57.30
2019-02-24T22:17:45.708Z,57.40
2019-02-24T22:20:15.174Z,57.40
2019-02-24T22:22:43.824Z,57.60
2019-02-24T22:25:13.419Z,57.70
2019-02-24T22:27:41.810Z,57.70
2019-02-24T22:30:13.395Z,57.80
2019-02-24T22:32:41.808Z,57.90
2019-02-24T22:35:10.238Z,57.90
2019-02-24T22:37:38.653Z,58.10
2019-02-24T22:40:11.734Z,58.10
2019-02-24T22:42:40.275Z,58.20
2019-02-24T22:45:11.956Z,58.30
2019-02-24T22:47:40.338Z,58.40
2019-02-24T22:50:09.783Z,58.50
2019-02-24T22:52:38.175Z,58.50
2019-02-24T22:55:11.462Z,58.60
2019-02-24T22:57:39.854Z,58.80
2019-02-24T23:00:23.170Z,58.80
2019-02-24T23:02:51.585Z,58.90
2019-02-24T23:05:19.996Z,59.00
2019-02-24T23:07:49.886Z,59.00
2019-02-24T23:10:18.339Z,59.10
2019-02-24T23:12:46.728Z,59.10
2019-02-24T23:15:15.225Z,59.20
2019-02-24T23:17:43.587Z,59.40
2019-02-24T23:20:12.002Z,59.40
2019-02-24T23:22:40.395Z,59.50
2019-02-24T23:25:08.817Z,59.50
2019-02-24T23:27:37.198Z,59.60
2019-02-24T23:30:07.749Z,59.60
2019-02-24T23:32:36.121Z,59.70
2019-02-24T23:35:06.080Z,59.80
2019-02-24T23:37:34.488Z,59.80
2019-02-24T23:40:03.941Z,59.90
2019-02-24T23:42:32.427Z,60.00
2019-02-24T23:45:09.729Z,60.00
2019-02-24T23:47:30.946Z,60.10
2019-02-24T23:49:59.467Z,60.20
2019-02-24T23:52:27.892Z,60.30
2019-02-24T23:54:56.620Z,60.30
2019-02-24T23:57:25.017Z,60.40
2019-02-24T23:59:53.449Z,60.50
